Time;durP1;ratioP1;P1;durP2;ratioP2;P2;SDS_P1;SDS_P2;PMS_P1;PMS_P2;Temp;Humidity;BMP_temperature;BMP_pressure;BME280_temperature;BME280_humidity;BME280_pressure;Samples;Min_cycle;Max_cycle;Signal;HPM_P1;HPM_P2
2022/06/06 00:01:43;;;;;;;5.23;3.70;;;;;;;;;;5011957;28;20195;-78
2022/06/06 00:04:10;;;;;;;5.00;4.20;;;;;;;;;;5012552;28;20181;-78
2022/06/06 00:06:36;;;;;;;4.17;3.87;;;;;;;;;;5009704;28;20186;-78
2022/06/06 00:09:01;;;;;;;3.83;3.53;;;;;;;;;;5026994;28;20185;-78
2022/06/06 00:11:26;;;;;;;4.17;3.27;;;;;;;;;;5008655;28;20269;-78
2022/06/06 00:13:51;;;;;;;3.47;3.17;;;;;;;;;;5009041;28;20214;-78
2022/06/06 00:16:17;;;;;;;4.40;2.90;;;;;;;;;;5005854;28;20189;-78
2022/06/06 00:18:42;;;;;;;4.17;3.60;;;;;;;;;;5006121;28;20184;-78
2022/06/06 00:21:09;;;;;;;3.53;3.23;;;;;;;;;;5005267;28;20275;-78
2022/06/06 00:23:35;;;;;;;3.07;2.70;;;;;;;;;;5005867;28;20187;-78
2022/06/06 00:26:05;;;;;;;3.83;3.47;;;;;;;;;;5010873;28;20266;-78
2022/06/06 00:28:30;;;;;;;4.43;3.00;;;;;;;;;;5006654;28;20172;-78
2022/06/06 00:30:56;;;;;;;3.70;3.40;;;;;;;;;;5012983;28;20204;-78
2022/06/06 00:36:05;;;;;;;3.17;2.97;;;;;;;;;;5013686;28;20186;-77
2022/06/06 00:38:31;;;;;;;5.70;3.37;;;;;;;;;;5013269;28;20176;-77
2022/06/06 00:40:57;;;;;;;5.30;3.57;;;;;;;;;;5013613;28;20213;-78
2022/06/06 00:43:22;;;;;;;3.57;3.27;;;;;;;;;;5012329;28;20222;-78
2022/06/06 00:45:49;;;;;;;6.33;3.63;;;;;;;;;;5009706;28;20248;-78
2022/06/06 00:48:21;;;;;;;4.37;3.97;;;;;;;;;;5024751;28;20227;-78
2022/06/06 00:50:49;;;;;;;5.03;4.20;;;;;;;;;;5018825;28;20244;-78
2022/06/06 00:53:18;;;;;;;4.33;3.90;;;;;;;;;;5016004;28;20247;-78
2022/06/06 00:55:46;;;;;;;5.37;3.87;;;;;;;;;;5033966;28;20185;-78
2022/06/06 00:58:16;;;;;;;4.77;4.37;;;;;;;;;;5016513;28;20236;-78
2022/06/06 01:00:43;;;;;;;4.83;4.43;;;;;;;;;;5011588;28;20211;-78
2022/06/06 01:03:09;;;;;;;4.63;4.07;;;;;;;;;;5013318;28;20182;-78
2022/06/06 01:05:35;;;;;;;4.40;3.90;;;;;;;;;;5013073;28;20238;-78
2022/06/06 01:08:00;;;;;;;6.13;4.77;;;;;;;;;;5012303;28;20210;-78
2022/06/06 01:10:25;;;;;;;5.13;4.70;;;;;;;;;;5010784;28;20206;-78
2022/06/06 01:12:53;;;;;;;5.03;4.63;;;;;;;;;;5008422;28;20214;-78
2022/06/06 01:15:21;;;;;;;5.73;4.77;;;;;;;;;;5011235;28;20190;-78
2022/06/06 01:17:55;;;;;;;5.10;4.60;;;;;;;;;;5008381;28;20230;-78
2022/06/06 01:20:26;;;;;;;5.53;5.03;;;;;;;;;;5011339;28;20185;-78
2022/06/06 01:22:51;;;;;;;5.20;4.80;;;;;;;;;;5010563;28;20186;-78
2022/06/06 01:25:40;;;;;;;4.90;4.50;;;;;;;;;;5027451;28;20208;-78
2022/06/06 01:28:25;;;;;;;5.73;4.73;;;;;;;;;;5013531;28;20265;-78
2022/06/06 01:30:52;;;;;;;6.00;5.40;;;;;;;;;;5025371;28;20209;-78
2022/06/06 01:33:17;;;;;;;5.20;4.80;;;;;;;;;;5014045;28;20190;-78
2022/06/06 01:35:47;;;;;;;5.43;5.03;;;;;;;;;;5008517;28;20301;-78
2022/06/06 01:38:13;;;;;;;6.13;5.63;;;;;;;;;;5011822;28;20248;-78
2022/06/06 01:40:44;;;;;;;6.20;5.60;;;;;;;;;;5009491;28;20195;-78
2022/06/06 01:43:13;;;;;;;6.27;5.67;;;;;;;;;;5011023;28;20213;-78
2022/06/06 01:45:47;;;;;;;5.37;4.97;;;;;;;;;;5009152;28;20225;-78
2022/06/06 01:48:14;;;;;;;6.30;5.70;;;;;;;;;;5007192;28;20234;-78
2022/06/06 01:50:40;;;;;;;6.27;5.67;;;;;;;;;;5020817;28;20215;-78
2022/06/06 01:53:08;;;;;;;6.33;5.73;;;;;;;;;;5009734;28;20185;-78
2022/06/06 01:55:37;;;;;;;5.87;5.20;;;;;;;;;;5008718;28;20224;-78
2022/06/06 01:58:04;;;;;;;6.03;5.63;;;;;;;;;;5024529;28;20186;-78
2022/06/06 02:00:31;;;;;;;6.20;4.90;;;;;;;;;;5005781;28;20269;-78
2022/06/06 02:02:56;;;;;;;6.03;5.40;;;;;;;;;;5007810;28;20189;-78
2022/06/06 02:05:22;;;;;;;5.87;5.33;;;;;;;;;;5007655;28;20206;-78
2022/06/06 02:07:47;;;;;;;6.53;5.93;;;;;;;;;;5010637;28;20186;-78
2022/06/06 02:10:14;;;;;;;5.77;5.23;;;;;;;;;;5000161;28;20186;-78
2022/06/06 02:12:40;;;;;;;5.73;5.10;;;;;;;;;;5008925;28;20181;-78
2022/06/06 02:15:06;;;;;;;5.70;5.20;;;;;;;;;;5011282;28;20195;-78
2022/06/06 02:17:32;;;;;;;5.53;5.03;;;;;;;;;;5025859;28;20199;-78
2022/06/06 02:19:57;;;;;;;5.47;4.47;;;;;;;;;;5004308;28;20194;-78
2022/06/06 02:22:22;;;;;;;6.90;5.40;;;;;;;;;;5007525;28;20178;-78
2022/06/06 02:24:48;;;;;;;8.27;6.00;;;;;;;;;;5004368;28;20194;-78
2022/06/06 02:27:13;;;;;;;5.70;5.20;;;;;;;;;;5003892;28;20194;-78
2022/06/06 02:29:38;;;;;;;5.90;5.40;;;;;;;;;;5009722;28;20177;-78
2022/06/06 02:32:05;;;;;;;5.37;4.87;;;;;;;;;;5009171;28;20189;-78
2022/06/06 02:34:30;;;;;;;6.37;5.63;;;;;;;;;;5014088;28;20209;-77
2022/06/06 02:36:55;;;;;;;7.40;5.57;;;;;;;;;;5014738;28;20221;-77
2022/06/06 02:39:20;;;;;;;6.83;5.23;;;;;;;;;;5014199;28;20216;-78
2022/06/06 02:41:46;;;;;;;5.60;4.93;;;;;;;;;;5010277;28;20208;-77
2022/06/06 02:44:11;;;;;;;5.17;4.67;;;;;;;;;;4997780;28;20204;-77
2022/06/06 02:46:36;;;;;;;6.00;5.40;;;;;;;;;;5007539;28;20185;-78
2022/06/06 02:49:01;;;;;;;6.73;5.20;;;;;;;;;;5006038;28;20306;-78
2022/06/06 02:51:26;;;;;;;7.13;5.03;;;;;;;;;;5005487;28;20177;-78
2022/06/06 02:53:52;;;;;;;6.70;6.00;;;;;;;;;;5005656;28;20216;-78
2022/06/06 02:56:17;;;;;;;6.80;5.50;;;;;;;;;;5010549;28;20264;-78
2022/06/06 02:58:42;;;;;;;6.67;5.53;;;;;;;;;;5007769;28;20179;-78
2022/06/06 03:01:09;;;;;;;5.70;5.20;;;;;;;;;;5002164;28;20223;-78
2022/06/06 03:03:34;;;;;;;6.90;6.20;;;;;;;;;;5010107;28;20198;-78
2022/06/06 03:06:05;;;;;;;6.03;5.53;;;;;;;;;;5007615;28;20199;-78
2022/06/06 03:08:40;;;;;;;5.00;4.60;;;;;;;;;;5009145;28;20171;-78
2022/06/06 03:11:21;;;;;;;5.77;5.33;;;;;;;;;;5011335;28;20174;-78
2022/06/06 03:13:59;;;;;;;7.90;5.53;;;;;;;;;;5006004;28;20206;-78
2022/06/06 03:22:21;;;;;;;7.03;6.37;;;;;;;;;;4999991;28;20192;-78
2022/06/06 03:24:55;;;;;;;8.00;5.87;;;;;;;;;;5003411;28;20227;-78
2022/06/06 03:27:39;;;;;;;6.20;5.60;;;;;;;;;;5006682;28;20177;-78
2022/06/06 03:30:17;;;;;;;9.87;7.07;;;;;;;;;;5005701;28;20205;-78
2022/06/06 03:32:44;;;;;;;7.90;6.17;;;;;;;;;;5005754;28;20186;-78
2022/06/06 03:35:12;;;;;;;6.80;6.20;;;;;;;;;;5001465;28;20191;-78
2022/06/06 03:37:40;;;;;;;9.97;6.80;;;;;;;;;;5005140;28;20186;-78
2022/06/06 03:40:28;;;;;;;8.77;6.87;;;;;;;;;;5017726;28;20178;-78
2022/06/06 03:43:18;;;;;;;7.63;6.93;;;;;;;;;;4999868;28;20190;-78
2022/06/06 03:46:04;;;;;;;7.77;6.90;;;;;;;;;;5021714;28;20208;-78
2022/06/06 03:48:29;;;;;;;7.10;6.40;;;;;;;;;;4963420;28;20284;-78
2022/06/06 03:50:54;;;;;;;9.03;6.37;;;;;;;;;;5037195;28;20198;-78
2022/06/06 03:53:31;;;;;;;8.20;6.20;;;;;;;;;;5037699;28;20269;-78
2022/06/06 03:56:09;;;;;;;7.50;6.13;;;;;;;;;;5011254;28;20184;-78
2022/06/06 03:58:34;;;;;;;6.73;6.13;;;;;;;;;;5025745;28;20182;-78
2022/06/06 04:01:05;;;;;;;7.73;6.97;;;;;;;;;;5022356;28;20250;-78
2022/06/06 04:03:31;;;;;;;6.67;6.17;;;;;;;;;;5022086;28;20261;-78
2022/06/06 04:05:57;;;;;;;8.23;6.17;;;;;;;;;;5032226;28;20297;-78
2022/06/06 04:08:22;;;;;;;8.67;7.30;;;;;;;;;;5006125;28;20170;-78
2022/06/06 04:10:58;;;;;;;6.07;5.47;;;;;;;;;;5022701;28;20204;-78
2022/06/06 04:13:29;;;;;;;6.10;5.60;;;;;;;;;;5012584;28;20174;-78
2022/06/06 04:15:57;;;;;;;7.87;7.17;;;;;;;;;;5037251;28;20192;-78
2022/06/06 04:18:41;;;;;;;7.50;6.80;;;;;;;;;;5004473;28;20186;-78
2022/06/06 04:21:15;;;;;;;7.53;6.60;;;;;;;;;;5002783;28;20220;-78
2022/06/06 04:24:00;;;;;;;6.67;6.00;;;;;;;;;;5015029;28;20186;-78
2022/06/06 04:26:44;;;;;;;7.43;6.37;;;;;;;;;;5005113;28;20316;-78
2022/06/06 04:29:12;;;;;;;7.73;6.93;;;;;;;;;;4985215;28;20183;-78
2022/06/06 04:31:37;;;;;;;7.13;6.50;;;;;;;;;;5008338;28;20186;-78
2022/06/06 04:34:02;;;;;;;6.27;5.57;;;;;;;;;;5005091;28;20197;-78
2022/06/06 04:36:38;;;;;;;7.00;6.30;;;;;;;;;;5028982;28;20203;-78
2022/06/06 04:39:03;;;;;;;7.10;5.63;;;;;;;;;;5006567;28;20229;-78
2022/06/06 04:41:42;;;;;;;8.37;5.50;;;;;;;;;;5029703;28;20231;-78
2022/06/06 04:44:12;;;;;;;7.47;6.00;;;;;;;;;;5009685;28;20193;-78
2022/06/06 04:46:46;;;;;;;5.67;5.10;;;;;;;;;;5011326;28;20182;-78
2022/06/06 04:49:12;;;;;;;6.20;5.60;;;;;;;;;;5010242;28;20313;-78
2022/06/06 04:51:39;;;;;;;10.20;6.10;;;;;;;;;;5006482;28;20218;-78
2022/06/06 04:54:04;;;;;;;6.40;5.73;;;;;;;;;;5008914;28;20184;-78
2022/06/06 04:56:29;;;;;;;6.07;5.50;;;;;;;;;;5024494;28;20205;-78
2022/06/06 04:58:57;;;;;;;7.10;5.57;;;;;;;;;;5008507;28;20264;-78
2022/06/06 05:01:23;;;;;;;6.60;5.47;;;;;;;;;;5019225;28;20191;-78
2022/06/06 05:03:48;;;;;;;5.97;5.37;;;;;;;;;;5012209;28;20179;-78
2022/06/06 05:06:17;;;;;;;5.97;5.23;;;;;;;;;;5007814;28;20206;-78
2022/06/06 05:09:00;;;;;;;6.17;5.57;;;;;;;;;;5026027;28;20186;-78
2022/06/06 05:11:32;;;;;;;5.37;4.87;;;;;;;;;;5007329;28;20190;-78
2022/06/06 05:13:57;;;;;;;6.43;5.63;;;;;;;;;;5013438;28;20190;-78
2022/06/06 05:16:22;;;;;;;6.97;5.73;;;;;;;;;;5004298;28;20284;-78
2022/06/06 05:18:50;;;;;;;5.97;5.10;;;;;;;;;;5011120;28;20187;-78
2022/06/06 05:21:34;;;;;;;5.10;4.70;;;;;;;;;;5008206;28;20180;-78
2022/06/06 05:24:11;;;;;;;5.77;5.27;;;;;;;;;;5017317;28;20336;-78
2022/06/06 05:26:48;;;;;;;7.00;5.60;;;;;;;;;;5003184;28;20202;-78
2022/06/06 05:29:26;;;;;;;8.43;4.83;;;;;;;;;;5005466;28;20176;-78
2022/06/06 05:32:12;;;;;;;7.43;5.10;;;;;;;;;;5008602;28;20186;-78
2022/06/06 05:34:39;;;;;;;6.57;4.43;;;;;;;;;;5001977;28;20183;-78
2022/06/06 05:37:04;;;;;;;6.27;5.20;;;;;;;;;;5005948;28;20205;-78
2022/06/06 05:39:45;;;;;;;6.43;5.10;;;;;;;;;;5024649;28;20184;-77
2022/06/06 05:42:17;;;;;;;6.27;4.93;;;;;;;;;;5007443;28;20184;-78
2022/06/06 05:44:42;;;;;;;5.17;4.67;;;;;;;;;;5014958;28;20431;-78
2022/06/06 05:47:14;;;;;;;5.43;5.03;;;;;;;;;;5005902;28;20183;-78
2022/06/06 05:49:49;;;;;;;6.00;4.67;;;;;;;;;;5014213;28;20408;-78
2022/06/06 05:52:17;;;;;;;7.70;5.40;;;;;;;;;;5031833;28;20177;-77
2022/06/06 05:54:51;;;;;;;5.00;4.60;;;;;;;;;;5012137;28;20175;-78
2022/06/06 05:57:19;;;;;;;5.00;4.50;;;;;;;;;;5029011;28;20178;-78
2022/06/06 06:00:23;;;;;;;6.00;4.70;;;;;;;;;;5012274;28;20236;-78
2022/06/06 06:02:48;;;;;;;4.40;4.00;;;;;;;;;;4951135;28;20186;-78
2022/06/06 06:05:16;;;;;;;4.80;4.33;;;;;;;;;;4965791;28;20290;-78
2022/06/06 06:08:01;;;;;;;4.50;4.10;;;;;;;;;;4982658;28;20189;-78
2022/06/06 06:10:32;;;;;;;4.77;4.37;;;;;;;;;;5033476;28;20209;-78
2022/06/06 06:12:58;;;;;;;4.00;3.70;;;;;;;;;;5012075;28;20191;-78
2022/06/06 06:15:36;;;;;;;4.40;4.00;;;;;;;;;;5025477;28;20179;-78
2022/06/06 06:18:02;;;;;;;5.77;3.57;;;;;;;;;;5007569;28;20233;-78
2022/06/06 06:20:29;;;;;;;5.67;4.23;;;;;;;;;;5010732;28;20234;-78
2022/06/06 06:22:55;;;;;;;5.67;4.73;;;;;;;;;;5005880;28;20276;-78
2022/06/06 06:25:21;;;;;;;5.00;4.03;;;;;;;;;;5023628;28;20294;-77
2022/06/06 06:27:47;;;;;;;4.13;3.73;;;;;;;;;;5010333;28;20216;-78
2022/06/06 06:30:12;;;;;;;4.40;4.00;;;;;;;;;;5007682;28;20171;-77
2022/06/06 06:32:56;;;;;;;4.23;3.83;;;;;;;;;;5013173;28;20186;-78
2022/06/06 06:35:42;;;;;;;4.57;3.53;;;;;;;;;;5011438;28;20222;-78
2022/06/06 06:38:13;;;;;;;8.77;4.57;;;;;;;;;;5008677;28;20185;-78
2022/06/06 06:40:50;;;;;;;4.17;3.70;;;;;;;;;;5025790;28;20242;-78
2022/06/06 06:43:32;;;;;;;4.23;3.77;;;;;;;;;;5009387;28;20171;-78
2022/06/06 06:46:00;;;;;;;4.27;3.87;;;;;;;;;;5012435;28;20203;-78
2022/06/06 06:48:36;;;;;;;3.90;3.60;;;;;;;;;;5005703;28;20261;-78
2022/06/06 06:51:01;;;;;;;4.53;3.77;;;;;;;;;;5023697;28;20293;-78
2022/06/06 06:53:30;;;;;;;3.87;3.57;;;;;;;;;;5009846;28;20201;-78
2022/06/06 06:56:00;;;;;;;4.13;3.83;;;;;;;;;;5006581;28;20215;-78
2022/06/06 06:58:30;;;;;;;4.13;3.70;;;;;;;;;;5003926;28;20274;-78
2022/06/06 07:01:00;;;;;;;3.80;3.50;;;;;;;;;;5008017;28;20192;-78
2022/06/06 07:09:41;;;;;;;3.63;3.33;;;;;;;;;;4986813;28;20213;-78
2022/06/06 07:12:25;;;;;;;3.83;3.37;;;;;;;;;;5017779;28;20453;-78
2022/06/06 07:14:50;;;;;;;4.30;3.90;;;;;;;;;;5002716;28;20190;-78
2022/06/06 07:17:16;;;;;;;6.00;3.60;;;;;;;;;;5007521;28;20181;-78
2022/06/06 07:19:50;;;;;;;5.37;3.40;;;;;;;;;;5008757;28;20182;-78
2022/06/06 07:22:16;;;;;;;3.70;3.40;;;;;;;;;;5005089;28;20225;-78
2022/06/06 07:24:42;;;;;;;4.80;4.10;;;;;;;;;;5004586;28;20194;-78
2022/06/06 07:27:08;;;;;;;3.47;3.17;;;;;;;;;;5000242;28;20211;-78
2022/06/06 07:29:34;;;;;;;3.20;3.00;;;;;;;;;;5010885;28;20175;-78
2022/06/06 07:32:11;;;;;;;3.30;3.10;;;;;;;;;;5002111;28;20245;-78
2022/06/06 07:34:45;;;;;;;4.60;3.07;;;;;;;;;;5005110;28;20186;-78
2022/06/06 07:37:26;;;;;;;3.80;3.20;;;;;;;;;;5001915;28;20282;-78
2022/06/06 07:39:51;;;;;;;3.37;3.07;;;;;;;;;;5001435;28;20190;-78
2022/06/06 07:42:19;;;;;;;3.47;2.70;;;;;;;;;;5005351;28;20184;-78
2022/06/06 07:45:02;;;;;;;3.30;3.00;;;;;;;;;;5013264;28;20197;-78
2022/06/06 07:47:27;;;;;;;3.87;3.30;;;;;;;;;;5005034;28;20223;-78
2022/06/06 07:49:52;;;;;;;3.23;3.03;;;;;;;;;;5005188;28;20293;-78
2022/06/06 07:52:20;;;;;;;5.93;3.73;;;;;;;;;;5011937;28;20177;-78
2022/06/06 07:54:58;;;;;;;3.20;2.90;;;;;;;;;;4989857;28;20183;-78
2022/06/06 07:57:32;;;;;;;3.87;2.97;;;;;;;;;;5007392;28;20185;-78
2022/06/06 08:00:03;;;;;;;4.90;2.97;;;;;;;;;;5001893;28;20190;-78
2022/06/06 08:02:31;;;;;;;3.17;2.83;;;;;;;;;;5021637;28;20201;-78
2022/06/06 08:05:00;;;;;;;4.47;2.87;;;;;;;;;;5005426;28;20325;-78
2022/06/06 08:07:33;;;;;;;3.30;3.00;;;;;;;;;;5013887;28;20190;-78
2022/06/06 08:10:17;;;;;;;3.07;2.87;;;;;;;;;;5004803;28;20180;-78
2022/06/06 08:12:45;;;;;;;3.03;2.77;;;;;;;;;;5024235;28;20179;-78
2022/06/06 08:15:24;;;;;;;3.33;3.03;;;;;;;;;;5022179;28;20202;-78
2022/06/06 08:17:49;;;;;;;3.10;2.80;;;;;;;;;;5024189;28;20189;-78
2022/06/06 08:20:20;;;;;;;3.30;2.63;;;;;;;;;;5026218;28;20243;-78
2022/06/06 08:22:45;;;;;;;3.00;2.80;;;;;;;;;;5024874;28;20239;-78
2022/06/06 08:25:13;;;;;;;2.93;2.63;;;;;;;;;;5016739;28;20291;-78
2022/06/06 08:27:40;;;;;;;3.23;2.90;;;;;;;;;;5008808;28;20169;-78
2022/06/06 08:30:05;;;;;;;3.83;2.80;;;;;;;;;;5024808;28;20186;-78
2022/06/06 08:32:31;;;;;;;2.80;2.50;;;;;;;;;;5011802;28;20175;-78
2022/06/06 08:34:56;;;;;;;3.20;2.90;;;;;;;;;;5016844;28;20208;-78
2022/06/06 08:37:35;;;;;;;3.10;2.83;;;;;;;;;;5006676;28;20187;-77
2022/06/06 08:40:01;;;;;;;3.30;2.77;;;;;;;;;;5007023;28;20234;-77
2022/06/06 08:42:26;;;;;;;3.30;3.10;;;;;;;;;;5008417;28;20233;-78
2022/06/06 08:45:09;;;;;;;3.23;2.80;;;;;;;;;;5010221;28;20215;-77
2022/06/06 08:47:41;;;;;;;2.90;2.70;;;;;;;;;;5013410;28;20221;-78
2022/06/06 08:53:05;;;;;;;2.90;2.60;;;;;;;;;;5003525;28;20240;-78
2022/06/06 08:55:49;;;;;;;3.70;2.43;;;;;;;;;;5026353;28;20198;-78
2022/06/06 08:58:15;;;;;;;2.60;2.40;;;;;;;;;;5015998;28;20186;-78
2022/06/06 09:00:40;;;;;;;2.80;2.60;;;;;;;;;;4988205;28;20271;-78
2022/06/06 09:03:24;;;;;;;3.00;2.53;;;;;;;;;;5018544;28;20216;-77
2022/06/06 09:06:25;;;;;;;3.70;2.80;;;;;;;;;;5010579;28;20202;-78
2022/06/06 09:09:09;;;;;;;3.67;2.90;;;;;;;;;;4950571;29;20179;-78
2022/06/06 09:11:52;;;;;;;2.20;2.10;;;;;;;;;;4941396;29;20199;-79
2022/06/06 09:14:29;;;;;;;2.97;2.30;;;;;;;;;;4933923;28;20189;-78
2022/06/06 09:17:13;;;;;;;2.80;2.20;;;;;;;;;;4937610;28;20185;-77
2022/06/06 09:19:57;;;;;;;2.57;2.20;;;;;;;;;;4946612;29;20257;-78
2022/06/06 09:22:32;;;;;;;2.33;2.13;;;;;;;;;;4952792;28;20273;-78
2022/06/06 09:25:16;;;;;;;3.43;2.00;;;;;;;;;;4949374;29;20231;-78
2022/06/06 09:28:04;;;;;;;2.33;2.13;;;;;;;;;;4950804;29;20185;-78
2022/06/06 09:30:58;;;;;;;2.67;2.17;;;;;;;;;;4927040;28;20183;-77
2022/06/06 09:33:38;;;;;;;3.40;2.30;;;;;;;;;;4937193;28;20194;-78
2022/06/06 09:36:13;;;;;;;5.73;2.40;;;;;;;;;;4947181;29;20191;-78
2022/06/06 09:38:38;;;;;;;2.10;1.90;;;;;;;;;;4931634;29;20187;-78
2022/06/06 09:41:22;;;;;;;2.00;1.90;;;;;;;;;;4935471;29;20188;-78
2022/06/06 09:44:02;;;;;;;2.97;1.83;;;;;;;;;;5000372;28;20244;-77
2022/06/06 09:46:31;;;;;;;1.97;1.87;;;;;;;;;;5009996;28;20205;-77
2022/06/06 09:49:19;;;;;;;1.90;1.80;;;;;;;;;;5023401;28;20228;-78
2022/06/06 09:51:53;;;;;;;2.27;2.07;;;;;;;;;;5012431;28;20190;-78
2022/06/06 10:00:17;;;;;;;2.03;1.80;;;;;;;;;;5024479;28;20247;-78
2022/06/06 10:02:45;;;;;;;4.27;2.20;;;;;;;;;;5010443;28;20205;-78
2022/06/06 10:05:13;;;;;;;2.50;2.27;;;;;;;;;;5009574;28;20214;-78
2022/06/06 10:07:57;;;;;;;2.23;2.00;;;;;;;;;;5012797;28;20187;-77
2022/06/06 10:10:36;;;;;;;1.90;1.80;;;;;;;;;;5025619;28;20167;-78
2022/06/06 10:13:01;;;;;;;1.97;1.77;;;;;;;;;;5024934;28;20175;-78
2022/06/06 10:15:39;;;;;;;5.53;2.77;;;;;;;;;;5021352;28;20175;-78
2022/06/06 10:18:17;;;;;;;2.27;2.07;;;;;;;;;;5008359;28;20267;-78
2022/06/06 10:20:48;;;;;;;2.80;2.03;;;;;;;;;;5015119;28;20181;-78
2022/06/06 10:23:32;;;;;;;2.00;1.90;;;;;;;;;;5022537;28;20215;-78
2022/06/06 10:26:01;;;;;;;1.93;1.80;;;;;;;;;;5029943;28;20255;-78
2022/06/06 10:28:47;;;;;;;2.30;2.13;;;;;;;;;;5036731;28;20262;-78
2022/06/06 10:31:32;;;;;;;2.73;2.53;;;;;;;;;;5066973;23;20326;-76
2022/06/06 10:34:27;;;;;;;2.50;1.90;;;;;;;;;;4970264;28;20268;-74
2022/06/06 10:37:04;;;;;;;3.27;2.57;;;;;;;;;;4938534;28;20193;-74
2022/06/06 10:39:36;;;;;;;2.33;2.13;;;;;;;;;;4988651;28;20174;-74
2022/06/06 10:42:19;;;;;;;1.70;1.60;;;;;;;;;;4975129;28;20192;-74
2022/06/06 10:44:57;;;;;;;3.37;2.30;;;;;;;;;;4969549;28;20185;-74
2022/06/06 10:47:22;;;;;;;2.50;2.20;;;;;;;;;;4986965;28;20201;-74
2022/06/06 10:50:00;;;;;;;3.00;2.80;;;;;;;;;;4986655;28;20205;-74
2022/06/06 10:52:36;;;;;;;3.13;2.93;;;;;;;;;;5010462;28;20271;-74
2022/06/06 10:55:05;;;;;;;2.93;2.60;;;;;;;;;;4991661;28;20183;-74
2022/06/06 10:57:42;;;;;;;2.73;2.10;;;;;;;;;;5003545;28;20189;-74
2022/06/06 11:00:16;;;;;;;2.80;2.60;;;;;;;;;;5003083;28;20185;-74
2022/06/06 11:02:42;;;;;;;2.30;2.10;;;;;;;;;;5007421;28;20227;-73
2022/06/06 11:05:25;;;;;;;3.13;2.67;;;;;;;;;;5010130;28;20204;-74
2022/06/06 11:07:59;;;;;;;2.53;1.80;;;;;;;;;;5010855;28;20186;-74
2022/06/06 11:10:25;;;;;;;4.40;3.97;;;;;;;;;;5019192;28;20294;-73
2022/06/06 11:13:00;;;;;;;3.33;1.90;;;;;;;;;;5005893;28;20261;-74
2022/06/06 11:15:37;;;;;;;2.60;2.17;;;;;;;;;;5004359;28;20192;-74
2022/06/06 11:18:16;;;;;;;2.77;2.30;;;;;;;;;;5005709;28;20192;-74
2022/06/06 11:20:51;;;;;;;6.00;2.23;;;;;;;;;;4991291;28;20236;-74
2022/06/06 11:23:46;;;;;;;2.20;2.10;;;;;;;;;;4989725;28;20175;-74
2022/06/06 11:26:14;;;;;;;4.17;2.10;;;;;;;;;;4976523;28;20214;-74
2022/06/06 11:28:51;;;;;;;2.10;2.00;;;;;;;;;;4993599;28;20190;-74
2022/06/06 11:31:16;;;;;;;2.10;2.00;;;;;;;;;;5004364;28;20172;-73
2022/06/06 11:33:57;;;;;;;2.37;2.13;;;;;;;;;;4992272;28;20190;-74
2022/06/06 11:36:52;;;;;;;2.07;1.80;;;;;;;;;;4981998;28;20233;-73
2022/06/06 11:39:36;;;;;;;1.90;1.77;;;;;;;;;;4960325;28;20230;-74
2022/06/06 11:42:14;;;;;;;3.03;2.00;;;;;;;;;;4989014;28;20187;-74
2022/06/06 11:44:58;;;;;;;4.47;2.10;;;;;;;;;;4991125;28;20237;-74
2022/06/06 11:47:39;;;;;;;2.23;1.80;;;;;;;;;;5003365;28;20176;-74
2022/06/06 11:50:23;;;;;;;2.97;2.77;;;;;;;;;;4989749;28;20231;-74
2022/06/06 11:52:50;;;;;;;2.77;2.30;;;;;;;;;;4982787;28;20199;-74
2022/06/06 11:55:27;;;;;;;2.17;2.07;;;;;;;;;;5005028;28;20181;-74
2022/06/06 11:58:19;;;;;;;4.23;2.00;;;;;;;;;;5003742;28;20186;-74
2022/06/06 12:01:03;;;;;;;3.10;2.00;;;;;;;;;;4947349;28;20212;-74
2022/06/06 12:03:32;;;;;;;2.93;1.93;;;;;;;;;;5003974;28;20190;-74
2022/06/06 12:06:07;;;;;;;2.97;2.10;;;;;;;;;;5005399;28;20203;-74
2022/06/06 12:08:35;;;;;;;2.20;2.00;;;;;;;;;;5010499;28;20188;-74
2022/06/06 12:11:16;;;;;;;2.30;2.10;;;;;;;;;;5004542;28;20220;-74
2022/06/06 12:13:47;;;;;;;2.00;1.90;;;;;;;;;;4985561;28;20247;-74
2022/06/06 12:16:16;;;;;;;2.43;2.10;;;;;;;;;;5001007;28;20203;-74
2022/06/06 12:19:00;;;;;;;3.47;2.53;;;;;;;;;;5002951;28;20212;-74
2022/06/06 12:21:34;;;;;;;2.37;2.17;;;;;;;;;;5004683;28;20414;-74
2022/06/06 12:24:06;;;;;;;3.90;2.20;;;;;;;;;;4992000;28;20193;-74
2022/06/06 12:26:49;;;;;;;2.53;2.33;;;;;;;;;;5009407;28;20249;-74
2022/06/06 12:29:15;;;;;;;2.33;2.03;;;;;;;;;;4992496;28;20187;-74
2022/06/06 12:31:44;;;;;;;3.13;2.30;;;;;;;;;;4989409;28;20225;-74
2022/06/06 12:34:20;;;;;;;2.10;2.00;;;;;;;;;;4977610;28;20207;-74
2022/06/06 12:37:12;;;;;;;2.20;2.10;;;;;;;;;;4973518;28;20189;-74
2022/06/06 12:39:40;;;;;;;3.40;2.30;;;;;;;;;;4984723;28;20294;-74
2022/06/06 12:42:31;;;;;;;2.60;2.40;;;;;;;;;;4977858;28;20188;-74
2022/06/06 12:45:09;;;;;;;2.50;2.30;;;;;;;;;;4964498;28;20269;-74
2022/06/06 12:47:54;;;;;;;2.40;2.20;;;;;;;;;;4970152;28;20184;-74
2022/06/06 12:50:25;;;;;;;2.67;2.33;;;;;;;;;;4986565;28;20210;-74
2022/06/06 12:53:08;;;;;;;2.80;2.60;;;;;;;;;;4992934;28;20508;-74
2022/06/06 12:58:27;;;;;;;4.07;2.27;;;;;;;;;;5005977;28;20218;-74
2022/06/06 13:04:05;;;;;;;2.30;2.10;;;;;;;;;;4974000;28;20218;-74
2022/06/06 13:06:36;;;;;;;2.37;2.23;;;;;;;;;;4982611;28;20218;-74
2022/06/06 13:09:08;;;;;;;3.87;2.80;;;;;;;;;;4998704;28;20210;-74
2022/06/06 13:11:33;;;;;;;2.40;2.20;;;;;;;;;;4991780;28;20188;-74
2022/06/06 13:14:27;;;;;;;2.70;2.47;;;;;;;;;;4998112;28;20188;-74
2022/06/06 13:16:52;;;;;;;3.07;2.83;;;;;;;;;;4917707;28;20197;-74
2022/06/06 13:19:47;;;;;;;2.67;2.33;;;;;;;;;;4989647;28;20183;-74
2022/06/06 13:22:41;;;;;;;2.33;2.07;;;;;;;;;;4978066;28;20178;-74
2022/06/06 13:25:25;;;;;;;2.97;2.33;;;;;;;;;;4956140;28;20220;-75
2022/06/06 13:27:59;;;;;;;2.70;2.50;;;;;;;;;;4975130;28;20192;-74
2022/06/06 13:30:26;;;;;;;2.60;2.40;;;;;;;;;;4964622;28;20178;-74
2022/06/06 13:33:04;;;;;;;3.60;2.70;;;;;;;;;;5000747;28;20312;-74
2022/06/06 13:35:43;;;;;;;2.83;2.63;;;;;;;;;;5012771;28;20186;-74
2022/06/06 13:38:08;;;;;;;2.60;2.37;;;;;;;;;;5015324;28;20191;-74
2022/06/06 13:40:44;;;;;;;2.37;2.20;;;;;;;;;;4992329;28;20233;-74
2022/06/06 13:43:13;;;;;;;3.93;2.53;;;;;;;;;;4988786;28;20214;-74
2022/06/06 13:45:55;;;;;;;3.23;2.50;;;;;;;;;;5018255;28;20211;-74
2022/06/06 13:48:39;;;;;;;3.40;2.97;;;;;;;;;;5012578;28;20182;-74
2022/06/06 13:51:22;;;;;;;2.70;2.50;;;;;;;;;;4992733;28;20245;-74
2022/06/06 13:53:50;;;;;;;3.50;2.80;;;;;;;;;;4990075;28;20186;-74
2022/06/06 13:56:18;;;;;;;3.80;2.80;;;;;;;;;;5005119;28;20187;-74
2022/06/06 13:58:44;;;;;;;3.80;2.90;;;;;;;;;;4993827;28;20191;-74
2022/06/06 14:01:28;;;;;;;3.20;2.90;;;;;;;;;;5006885;28;20253;-74
2022/06/06 14:04:06;;;;;;;3.77;3.30;;;;;;;;;;5011372;28;20187;-74
2022/06/06 14:06:50;;;;;;;4.93;3.47;;;;;;;;;;4994218;28;20268;-74
2022/06/06 14:09:16;;;;;;;3.70;3.00;;;;;;;;;;4993932;28;20178;-74
2022/06/06 14:11:48;;;;;;;3.67;3.37;;;;;;;;;;4995580;28;20173;-74
2022/06/06 14:14:15;;;;;;;3.13;2.93;;;;;;;;;;5007734;28;20189;-74
2022/06/06 14:16:41;;;;;;;3.20;3.00;;;;;;;;;;4998277;28;20272;-74
2022/06/06 14:19:17;;;;;;;3.93;3.63;;;;;;;;;;4994880;28;20271;-74
2022/06/06 14:21:53;;;;;;;3.30;3.10;;;;;;;;;;5007209;28;20188;-73
2022/06/06 14:24:20;;;;;;;3.83;3.00;;;;;;;;;;5010724;28;20181;-74
2022/06/06 14:26:51;;;;;;;3.87;3.57;;;;;;;;;;5011243;28;20437;-74
2022/06/06 14:29:36;;;;;;;5.60;3.53;;;;;;;;;;5008985;28;20178;-74
2022/06/06 14:32:04;;;;;;;3.83;3.53;;;;;;;;;;5008323;28;20227;-74
2022/06/06 14:34:46;;;;;;;4.37;3.67;;;;;;;;;;5012227;28;20187;-74
2022/06/06 14:37:17;;;;;;;4.23;3.20;;;;;;;;;;4994316;28;20186;-74
2022/06/06 14:39:43;;;;;;;4.60;3.30;;;;;;;;;;4995263;28;20228;-74
2022/06/06 14:42:10;;;;;;;4.67;3.37;;;;;;;;;;4992025;28;20185;-74
2022/06/06 14:44:38;;;;;;;3.13;2.93;;;;;;;;;;4996248;28;20188;-74
2022/06/06 14:47:24;;;;;;;4.27;3.40;;;;;;;;;;4991470;28;20190;-74
2022/06/06 14:52:52;;;;;;;3.97;3.00;;;;;;;;;;5006426;28;20187;-74
2022/06/06 14:55:19;;;;;;;3.50;2.60;;;;;;;;;;4993005;28;20182;-74
2022/06/06 14:57:45;;;;;;;2.77;2.57;;;;;;;;;;5004507;28;20182;-74
2022/06/06 15:00:15;;;;;;;2.90;2.70;;;;;;;;;;5012104;28;20201;-74
2022/06/06 15:02:40;;;;;;;3.00;2.80;;;;;;;;;;4988776;28;20190;-74
2022/06/06 15:05:17;;;;;;;2.87;2.63;;;;;;;;;;4991285;28;20340;-74
2022/06/06 15:08:09;;;;;;;3.00;2.80;;;;;;;;;;4985363;28;20216;-74
2022/06/06 15:10:40;;;;;;;5.40;3.33;;;;;;;;;;5003976;28;20199;-74
2022/06/06 15:13:06;;;;;;;3.03;2.77;;;;;;;;;;5005635;28;20180;-74
2022/06/06 15:15:33;;;;;;;3.93;3.17;;;;;;;;;;4992742;28;20187;-74
2022/06/06 15:17:59;;;;;;;2.87;2.67;;;;;;;;;;5006655;28;20243;-74
2022/06/06 15:20:30;;;;;;;6.10;3.30;;;;;;;;;;5007501;28;20183;-74
2022/06/06 15:22:57;;;;;;;2.93;2.73;;;;;;;;;;5000236;28;20217;-74
2022/06/06 15:25:27;;;;;;;3.97;3.57;;;;;;;;;;5005213;28;20201;-74
2022/06/06 15:27:52;;;;;;;5.07;3.53;;;;;;;;;;4991317;28;20210;-74
2022/06/06 15:30:26;;;;;;;2.93;2.73;;;;;;;;;;5008085;28;20235;-74
2022/06/06 15:33:00;;;;;;;3.07;2.70;;;;;;;;;;4986835;28;20232;-74
2022/06/06 15:35:44;;;;;;;3.40;3.20;;;;;;;;;;4982419;28;20181;-74
2022/06/06 15:38:09;;;;;;;3.80;3.00;;;;;;;;;;4997252;28;20194;-74
2022/06/06 15:40:37;;;;;;;3.13;2.70;;;;;;;;;;4991695;28;20259;-74
2022/06/06 15:43:12;;;;;;;5.17;2.57;;;;;;;;;;4981241;28;20205;-74
2022/06/06 15:45:40;;;;;;;2.63;2.43;;;;;;;;;;4980950;28;20298;-74
2022/06/06 15:48:22;;;;;;;3.63;2.50;;;;;;;;;;4967553;28;20181;-74